createdAt,value
2023-12-23T00:00:19.819Z,4.50
2023-12-23T00:02:47.576Z,7.22
2023-12-23T00:05:18.114Z,5.97
2023-12-23T00:07:45.971Z,5.75
2023-12-23T00:10:13.949Z,8.00
2023-12-23T00:12:41.902Z,8.65
2023-12-23T00:15:09.897Z,4.55
2023-12-23T00:17:37.817Z,6.15
2023-12-23T00:20:06.158Z,5.30
2023-12-23T00:22:34.188Z,4.22
2023-12-23T00:25:02.455Z,6.03
2023-12-23T00:27:30.450Z,3.97
2023-12-23T00:29:58.284Z,3.58
2023-12-23T00:32:26.423Z,4.95
2023-12-23T00:34:54.391Z,2.35
2023-12-23T00:37:22.642Z,3.42
2023-12-23T00:39:50.430Z,4.47
2023-12-23T00:42:18.262Z,5.00
2023-12-23T00:44:46.057Z,2.55
2023-12-23T00:47:14.032Z,3.30
2023-12-23T00:49:41.906Z,6.45
2023-12-23T00:52:09.790Z,3.17
2023-12-23T00:54:37.482Z,3.63
2023-12-23T00:57:05.428Z,4.22
2023-12-23T00:59:33.186Z,4.43
2023-12-23T01:02:00.898Z,2.10
2023-12-23T01:04:30.104Z,3.45
2023-12-23T01:06:57.481Z,2.65
2023-12-23T01:09:25.561Z,6.28
2023-12-23T01:11:53.404Z,2.80
2023-12-23T01:14:21.454Z,4.07
2023-12-23T01:16:49.387Z,3.92
2023-12-23T01:19:17.176Z,3.97
2023-12-23T01:21:44.878Z,3.47
2023-12-23T01:24:12.676Z,2.80
2023-12-23T01:26:40.352Z,3.58
2023-12-23T01:29:10.906Z,2.38
2023-12-23T01:31:39.008Z,3.08
2023-12-23T01:34:07.084Z,2.28
2023-12-23T01:36:34.995Z,3.25
2023-12-23T01:39:03.200Z,6.45
2023-12-23T01:41:30.745Z,2.47
2023-12-23T01:43:58.467Z,4.03
2023-12-23T01:46:26.597Z,3.22
2023-12-23T01:48:54.919Z,4.80
2023-12-23T01:51:22.889Z,3.97
2023-12-23T01:53:51.249Z,4.47
2023-12-23T01:56:19.163Z,1.50
2023-12-23T01:58:47.318Z,5.18
2023-12-23T02:01:14.837Z,3.60
2023-12-23T02:03:44.388Z,2.25
2023-12-23T02:06:12.501Z,2.63
2023-12-23T02:08:40.754Z,1.83
2023-12-23T02:11:13.666Z,2.40
2023-12-23T02:13:52.775Z,2.03
2023-12-23T02:16:20.817Z,2.47
2023-12-23T02:18:48.649Z,2.47
2023-12-23T02:21:16.518Z,3.78
2023-12-23T02:23:44.446Z,3.33
2023-12-23T02:26:14.716Z,2.33
2023-12-23T02:28:44.700Z,3.17
2023-12-23T02:31:12.575Z,6.88
2023-12-23T02:33:40.751Z,1.85
2023-12-23T02:36:08.757Z,3.08
2023-12-23T02:38:36.575Z,3.30
2023-12-23T02:41:04.450Z,2.33
2023-12-23T02:43:32.198Z,2.03
2023-12-23T02:45:59.992Z,3.00
2023-12-23T02:48:27.864Z,2.22
2023-12-23T02:50:57.036Z,1.52
2023-12-23T02:53:24.831Z,1.70
2023-12-23T02:55:52.804Z,4.60
2023-12-23T02:58:20.482Z,3.58
2023-12-23T03:00:48.408Z,2.33
2023-12-23T03:03:16.372Z,2.42
2023-12-23T03:05:44.361Z,1.95
2023-12-23T03:08:12.402Z,2.65
2023-12-23T03:10:40.284Z,3.40
2023-12-23T03:13:08.045Z,3.10
2023-12-23T03:15:35.880Z,2.38
2023-12-23T03:18:03.737Z,3.10
2023-12-23T03:20:32.266Z,4.05
2023-12-23T03:23:00.058Z,2.70
2023-12-23T03:25:27.706Z,1.65
2023-12-23T03:27:55.708Z,2.05
2023-12-23T03:30:23.756Z,2.88
2023-12-23T03:32:52.084Z,2.28
2023-12-23T03:35:20.173Z,2.33
2023-12-23T03:37:48.063Z,3.78
2023-12-23T03:40:15.883Z,4.88
2023-12-23T03:42:43.569Z,3.25
2023-12-23T03:45:12.781Z,4.00
2023-12-23T03:47:42.462Z,3.53
2023-12-23T03:50:11.504Z,1.35
2023-12-23T03:52:40.213Z,4.43
2023-12-23T03:55:10.747Z,2.28
2023-12-23T03:57:38.516Z,1.98
2023-12-23T04:00:08.309Z,2.42
2023-12-23T04:02:39.302Z,2.72
2023-12-23T04:05:09.927Z,1.50
2023-12-23T04:07:37.745Z,1.23
2023-12-23T04:10:05.755Z,2.08
2023-12-23T04:12:33.570Z,1.45
2023-12-23T04:15:01.463Z,4.85
2023-12-23T04:17:29.540Z,3.60
2023-12-23T04:19:58.498Z,0.70
2023-12-23T04:22:26.325Z,1.80
2023-12-23T04:24:54.669Z,1.55
2023-12-23T04:27:22.723Z,3.83
2023-12-23T04:29:50.621Z,3.20
2023-12-23T04:32:18.555Z,3.45
2023-12-23T04:34:47.309Z,1.83
2023-12-23T04:37:15.074Z,2.85
2023-12-23T04:39:43.304Z,6.13
2023-12-23T04:42:11.247Z,3.60
2023-12-23T04:44:39.309Z,2.05
2023-12-23T04:47:07.095Z,2.42
2023-12-23T04:49:35.098Z,4.05
2023-12-23T04:52:02.850Z,2.65
2023-12-23T04:54:30.807Z,3.47
2023-12-23T04:56:59.425Z,2.70
2023-12-23T04:59:28.686Z,1.40
2023-12-23T05:01:56.627Z,2.22
2023-12-23T05:04:25.178Z,2.72
2023-12-23T05:06:52.864Z,1.80
2023-12-23T05:09:20.752Z,2.08
2023-12-23T05:11:48.713Z,2.50
2023-12-23T05:14:16.739Z,2.33
2023-12-23T05:16:44.719Z,2.00
2023-12-23T05:19:12.748Z,2.30
2023-12-23T05:21:40.608Z,2.60
2023-12-23T05:24:08.734Z,2.97
2023-12-23T05:26:36.558Z,2.55
2023-12-23T05:29:04.687Z,1.77
2023-12-23T05:31:32.528Z,2.17
2023-12-23T05:34:01.284Z,2.05
2023-12-23T05:36:29.184Z,2.53
2023-12-23T05:38:57.956Z,2.67
2023-12-23T05:41:26.000Z,2.45
2023-12-23T05:43:54.087Z,2.53
2023-12-23T05:46:21.934Z,5.10
2023-12-23T05:48:49.852Z,4.85
2023-12-23T05:51:17.577Z,5.43
2023-12-23T05:53:45.229Z,5.25
2023-12-23T05:56:13.073Z,6.47
2023-12-23T05:58:40.861Z,3.63
2023-12-23T06:01:09.785Z,3.63
2023-12-23T06:03:40.286Z,4.32
2023-12-23T06:06:08.237Z,3.90
2023-12-23T06:08:36.266Z,3.15
2023-12-23T06:11:05.823Z,3.40
2023-12-23T06:13:33.864Z,3.58
2023-12-23T06:16:09.544Z,4.80
2023-12-23T06:18:37.530Z,5.85
2023-12-23T06:21:05.386Z,7.35
2023-12-23T06:23:33.313Z,5.88
2023-12-23T06:26:01.178Z,7.10
2023-12-23T06:28:28.918Z,6.10
2023-12-23T06:30:59.287Z,6.45
2023-12-23T06:33:27.296Z,10.55
2023-12-23T06:35:57.741Z,14.07
2023-12-23T06:38:25.448Z,10.60
2023-12-23T06:40:53.458Z,10.32
2023-12-23T06:43:44.764Z,6.22
2023-12-23T06:46:12.028Z,5.55
2023-12-23T06:48:40.272Z,4.15
2023-12-23T06:51:08.444Z,6.50
2023-12-23T06:53:36.317Z,6.15
2023-12-23T06:56:07.627Z,8.30
2023-12-23T06:58:35.481Z,9.13
2023-12-23T07:01:03.487Z,7.28
2023-12-23T07:03:33.388Z,7.97
2023-12-23T07:06:01.199Z,8.32
2023-12-23T07:08:29.341Z,10.50
2023-12-23T07:10:57.333Z,9.77
2023-12-23T07:13:25.225Z,7.80
2023-12-23T07:15:53.086Z,11.52
2023-12-23T07:18:21.121Z,10.10
2023-12-23T07:20:49.234Z,10.60
2023-12-23T07:23:16.882Z,16.38
2023-12-23T07:25:44.686Z,17.15
2023-12-23T07:28:13.244Z,7.97
2023-12-23T07:30:46.310Z,9.32
2023-12-23T07:33:15.291Z,8.13
2023-12-23T07:35:43.424Z,5.88
2023-12-23T07:38:11.190Z,5.25
2023-12-23T07:40:40.258Z,16.63
2023-12-23T07:43:09.643Z,12.02
2023-12-23T07:45:37.607Z,5.18
2023-12-23T07:48:05.945Z,10.52
2023-12-23T07:50:33.625Z,8.88
2023-12-23T07:53:01.620Z,17.75
2023-12-23T07:55:31.848Z,17.25
2023-12-23T07:58:00.659Z,9.38
2023-12-23T08:00:30.464Z,14.02
2023-12-23T08:02:58.284Z,6.32
2023-12-23T08:05:26.888Z,6.57
2023-12-23T08:07:55.350Z,9.20
2023-12-23T08:10:23.144Z,10.02
2023-12-23T08:12:51.009Z,7.63
2023-12-23T08:15:19.156Z,12.38
2023-12-23T08:17:47.026Z,5.97
2023-12-23T08:20:15.155Z,3.70
2023-12-23T08:22:43.681Z,4.05
2023-12-23T08:25:11.542Z,7.85
2023-12-23T08:27:42.297Z,5.10
2023-12-23T08:30:10.569Z,5.82
2023-12-23T08:32:38.976Z,4.40
2023-12-23T08:35:07.070Z,3.88
2023-12-23T08:37:34.643Z,9.50
2023-12-23T08:40:02.462Z,9.10
2023-12-23T08:42:30.539Z,7.95
2023-12-23T08:44:58.310Z,3.92
2023-12-23T08:47:26.536Z,4.82
2023-12-23T08:49:54.487Z,7.95
2023-12-23T08:52:22.274Z,7.20
2023-12-23T08:54:50.424Z,6.78
2023-12-23T08:57:18.187Z,12.00
2023-12-23T08:59:45.770Z,8.32
2023-12-23T09:02:13.609Z,8.35
2023-12-23T09:04:44.784Z,9.15
2023-12-23T09:07:13.544Z,8.40
2023-12-23T09:09:44.385Z,8.93
2023-12-23T09:12:12.303Z,8.73
2023-12-23T09:14:41.312Z,9.68
2023-12-23T09:17:08.960Z,5.80
2023-12-23T09:19:36.770Z,8.50
2023-12-23T09:22:05.025Z,7.40
2023-12-23T09:24:32.870Z,9.93
2023-12-23T09:27:00.439Z,11.45
2023-12-23T09:29:28.493Z,10.30
2023-12-23T09:31:59.322Z,8.82
2023-12-23T09:34:27.851Z,13.55
2023-12-23T09:36:55.612Z,3.63
2023-12-23T09:39:23.319Z,5.47
2023-12-23T09:41:52.174Z,5.95
2023-12-23T09:44:20.115Z,12.52
2023-12-23T09:46:48.337Z,14.13
2023-12-23T09:49:16.693Z,15.73
2023-12-23T09:51:46.106Z,9.75
2023-12-23T09:54:18.684Z,10.95
2023-12-23T09:56:48.637Z,11.57
2023-12-23T09:59:16.708Z,8.95
2023-12-23T10:01:44.583Z,5.68
2023-12-23T10:04:12.748Z,7.40
2023-12-23T10:06:42.900Z,8.60
2023-12-23T10:09:11.724Z,5.70
2023-12-23T10:11:39.569Z,9.25
2023-12-23T10:14:10.770Z,8.20
2023-12-23T10:16:42.595Z,9.55
2023-12-23T10:19:11.827Z,10.82
2023-12-23T10:21:42.682Z,13.73
2023-12-23T10:24:10.497Z,12.38
2023-12-23T10:26:38.965Z,12.32
2023-12-23T10:29:07.873Z,12.68
2023-12-23T10:31:37.096Z,10.93
2023-12-23T10:34:13.834Z,12.00
2023-12-23T10:36:43.490Z,16.48
2023-12-23T10:39:14.885Z,11.90
2023-12-23T10:42:05.942Z,14.07
2023-12-23T10:44:34.476Z,9.20
2023-12-23T10:47:03.170Z,10.88
2023-12-23T10:49:31.308Z,10.82
2023-12-23T10:52:02.315Z,10.05
2023-12-23T10:54:30.830Z,8.60
2023-12-23T10:57:00.949Z,9.68
2023-12-23T11:01:58.545Z,12.70
2023-12-23T11:04:27.578Z,12.77
2023-12-23T11:07:00.251Z,12.05
2023-12-23T11:09:28.490Z,9.70
2023-12-23T11:11:56.319Z,6.20
2023-12-23T11:14:24.222Z,11.85
2023-12-23T11:16:52.145Z,10.20
2023-12-23T11:19:20.917Z,16.38
2023-12-23T11:21:48.699Z,20.10
2023-12-23T11:24:36.090Z,13.18
2023-12-23T11:27:03.897Z,13.02
2023-12-23T11:29:31.589Z,12.25
2023-12-23T11:32:14.901Z,14.77
2023-12-23T11:34:43.186Z,10.90
2023-12-23T11:37:11.679Z,12.63
2023-12-23T11:39:39.617Z,8.50
2023-12-23T11:42:09.256Z,9.43
2023-12-23T11:44:37.939Z,11.10
2023-12-23T11:47:09.679Z,11.40
2023-12-23T11:49:40.806Z,14.40
2023-12-23T11:52:09.600Z,14.30
2023-12-23T11:54:37.485Z,9.68
2023-12-23T11:57:05.808Z,10.68
2023-12-23T11:59:36.603Z,9.77
2023-12-23T12:02:05.781Z,8.10
2023-12-23T12:04:34.216Z,10.77
2023-12-23T12:07:02.359Z,12.68
2023-12-23T12:09:30.062Z,14.02
2023-12-23T12:11:57.970Z,15.18
2023-12-23T12:14:26.093Z,20.92
2023-12-23T12:16:54.026Z,16.80
2023-12-23T12:19:21.914Z,14.05
2023-12-23T12:21:49.265Z,18.05
2023-12-23T12:24:18.298Z,12.70
2023-12-23T12:26:53.840Z,13.05
2023-12-23T12:29:24.185Z,13.60
2023-12-23T12:31:56.145Z,10.07
2023-12-23T12:34:24.303Z,12.70
2023-12-23T12:36:55.749Z,9.07
2023-12-23T12:39:23.513Z,11.23
2023-12-23T12:41:54.748Z,19.88
2023-12-23T12:44:23.220Z,18.88
2023-12-23T12:46:56.849Z,16.70
2023-12-23T12:49:30.310Z,14.95
2023-12-23T12:51:58.644Z,20.55
2023-12-23T12:54:26.626Z,22.30
2023-12-23T12:56:56.984Z,36.13
2023-12-23T12:59:24.959Z,61.78
2023-12-23T13:01:55.186Z,52.75
2023-12-23T13:04:24.238Z,52.22
2023-12-23T13:06:53.572Z,36.28
2023-12-23T13:09:21.288Z,38.92
2023-12-23T13:11:49.302Z,36.13
2023-12-23T13:14:17.197Z,31.08
2023-12-23T13:16:47.676Z,35.78
2023-12-23T13:19:15.748Z,43.72
2023-12-23T13:21:43.588Z,48.60
2023-12-23T13:24:11.238Z,49.95
2023-12-23T13:26:39.250Z,55.85
2023-12-23T13:29:07.266Z,34.58
2023-12-23T13:31:35.089Z,37.38
2023-12-23T13:34:02.905Z,32.45
2023-12-23T13:36:31.213Z,42.53
2023-12-23T13:38:59.021Z,41.95
2023-12-23T13:41:29.742Z,44.83
2023-12-23T13:43:58.044Z,54.88
2023-12-23T13:46:25.811Z,41.58
2023-12-23T13:48:53.694Z,47.05
2023-12-23T13:51:21.503Z,52.40
2023-12-23T13:53:49.387Z,36.17
2023-12-23T13:56:17.302Z,31.52
2023-12-23T13:58:45.659Z,24.48
2023-12-23T14:01:13.489Z,16.45
2023-12-23T14:03:41.817Z,21.98
2023-12-23T14:06:10.389Z,53.40
2023-12-23T14:08:38.224Z,100.00
2023-12-23T14:11:06.147Z,33.30
2023-12-23T14:13:34.880Z,21.58
2023-12-23T14:16:02.547Z,20.85
2023-12-23T14:18:30.738Z,19.77
2023-12-23T14:20:59.673Z,28.08
2023-12-23T14:23:28.830Z,25.77
2023-12-23T14:25:56.677Z,21.75
2023-12-23T14:28:24.316Z,25.08
2023-12-23T14:30:52.997Z,14.07
2023-12-23T14:33:20.949Z,9.90
2023-12-23T14:35:49.022Z,8.57
2023-12-23T14:38:20.197Z,10.10
2023-12-23T14:40:47.889Z,8.52
2023-12-23T14:43:15.692Z,6.40
2023-12-23T14:45:43.483Z,5.28
2023-12-23T14:48:11.272Z,7.60
2023-12-23T14:50:39.369Z,9.93
2023-12-23T14:53:07.871Z,10.50
2023-12-23T14:55:38.590Z,6.13
2023-12-23T14:58:07.531Z,7.45
2023-12-23T15:00:35.280Z,9.18
2023-12-23T15:03:02.862Z,6.43
2023-12-23T15:05:30.347Z,5.97
2023-12-23T15:07:58.598Z,4.03
2023-12-23T15:10:26.513Z,7.90
2023-12-23T15:12:54.631Z,3.22
2023-12-23T15:15:22.545Z,4.28
2023-12-23T15:17:50.183Z,5.22
2023-12-23T15:20:18.144Z,3.72
2023-12-23T15:22:46.372Z,3.53
2023-12-23T15:25:14.465Z,4.13
2023-12-23T15:27:41.782Z,3.22
2023-12-23T15:30:10.530Z,3.75
2023-12-23T15:32:38.413Z,3.03
2023-12-23T15:35:07.425Z,2.30
2023-12-23T15:37:34.875Z,5.85
2023-12-23T15:40:02.630Z,1.30
2023-12-23T15:42:30.842Z,0.98
2023-12-23T15:44:58.430Z,2.58
2023-12-23T15:47:26.234Z,1.52
2023-12-23T15:49:53.961Z,2.75
2023-12-23T15:52:22.174Z,4.97
2023-12-23T15:54:50.981Z,1.95
2023-12-23T15:57:19.482Z,2.72
2023-12-23T15:59:47.825Z,2.72
2023-12-23T16:02:15.926Z,1.73
2023-12-23T16:04:44.560Z,0.82
2023-12-23T16:07:13.337Z,2.88
2023-12-23T16:09:41.633Z,2.28
2023-12-23T16:12:10.249Z,2.60
2023-12-23T16:14:42.459Z,5.15
2023-12-23T16:17:11.066Z,1.50
2023-12-23T16:19:38.946Z,0.80
2023-12-23T16:22:06.899Z,2.00
2023-12-23T16:24:34.919Z,1.90
2023-12-23T16:27:03.005Z,3.15
2023-12-23T16:29:31.058Z,1.50
2023-12-23T16:32:02.192Z,1.05
2023-12-23T16:34:31.712Z,1.92
2023-12-23T16:36:59.512Z,1.88
2023-12-23T16:39:27.291Z,3.10
2023-12-23T16:41:55.010Z,0.55
2023-12-23T16:44:22.872Z,4.72
2023-12-23T16:46:51.084Z,0.57
2023-12-23T16:49:22.903Z,0.88
2023-12-23T16:51:54.730Z,1.38
2023-12-23T16:54:24.101Z,1.63
2023-12-23T16:56:52.117Z,1.67
2023-12-23T16:59:20.225Z,1.48
2023-12-23T17:01:48.207Z,0.95
2023-12-23T17:04:21.278Z,1.38
2023-12-23T17:06:51.428Z,1.92
2023-12-23T17:09:19.394Z,1.73
2023-12-23T17:11:50.062Z,2.10
2023-12-23T17:14:19.639Z,2.40
2023-12-23T17:16:47.873Z,3.42
2023-12-23T17:19:20.185Z,2.15
2023-12-23T17:21:48.139Z,3.65
2023-12-23T17:24:18.457Z,1.20
2023-12-23T17:26:47.347Z,1.42
2023-12-23T17:29:15.848Z,2.20
2023-12-23T17:31:44.824Z,1.98
2023-12-23T17:34:12.896Z,2.17
2023-12-23T17:36:43.748Z,2.70
2023-12-23T17:39:13.761Z,4.43
2023-12-23T17:41:41.728Z,0.45
2023-12-23T17:44:09.766Z,1.65
2023-12-23T17:46:37.600Z,2.58
2023-12-23T17:49:08.009Z,3.92
2023-12-23T17:51:37.026Z,2.25
2023-12-23T17:54:04.867Z,2.20
2023-12-23T17:56:32.708Z,0.60
2023-12-23T17:59:01.841Z,3.65
2023-12-23T18:01:29.543Z,0.82
2023-12-23T18:03:57.715Z,2.80
2023-12-23T18:06:27.351Z,3.92
2023-12-23T18:08:55.402Z,2.00
2023-12-23T18:11:23.364Z,2.45
2023-12-23T18:13:51.377Z,0.75
2023-12-23T18:16:19.351Z,1.20
2023-12-23T18:18:47.404Z,0.43
2023-12-23T18:21:15.231Z,1.77
2023-12-23T18:23:43.344Z,2.67
2023-12-23T18:26:11.190Z,3.55
2023-12-23T18:28:39.154Z,0.47
2023-12-23T18:31:07.354Z,2.00
2023-12-23T18:33:35.542Z,1.98
2023-12-23T18:36:04.576Z,1.85
2023-12-23T18:38:34.189Z,0.55
2023-12-23T18:41:02.019Z,1.75
2023-12-23T18:43:30.093Z,0.95
2023-12-23T18:45:57.958Z,0.75
2023-12-23T18:48:26.081Z,4.47
2023-12-23T18:50:54.393Z,0.73
2023-12-23T18:53:22.283Z,0.00
2023-12-23T18:55:50.422Z,1.30
2023-12-23T18:58:18.666Z,2.75
2023-12-23T19:00:46.515Z,5.50
2023-12-23T19:03:16.309Z,0.43
2023-12-23T19:05:44.471Z,1.10
2023-12-23T19:08:12.399Z,1.08
2023-12-23T19:10:44.689Z,3.30
2023-12-23T19:13:13.800Z,1.35
2023-12-23T19:15:42.681Z,1.10
2023-12-23T19:18:11.046Z,1.25
2023-12-23T19:20:39.249Z,1.55
2023-12-23T19:23:09.155Z,3.22
2023-12-23T19:28:08.129Z,1.48
2023-12-23T19:30:36.310Z,2.53
2023-12-23T19:33:04.343Z,1.10
2023-12-23T19:35:32.308Z,1.50
2023-12-23T19:38:02.485Z,2.40
2023-12-23T19:40:30.599Z,2.03
2023-12-23T19:42:58.342Z,1.80
2023-12-23T19:45:26.041Z,0.80
2023-12-23T19:47:54.273Z,4.57
2023-12-23T19:50:22.484Z,2.40
2023-12-23T19:52:50.528Z,2.97
2023-12-23T19:55:18.725Z,2.20
2023-12-23T19:57:46.701Z,2.80
2023-12-23T20:00:14.839Z,1.48
2023-12-23T20:02:42.945Z,2.25
2023-12-23T20:05:11.733Z,0.77
2023-12-23T20:07:39.732Z,2.28
2023-12-23T20:10:08.115Z,1.95
2023-12-23T20:12:36.052Z,0.80
2023-12-23T20:15:04.353Z,0.38
2023-12-23T20:17:33.877Z,1.35
2023-12-23T20:20:01.781Z,1.38
2023-12-23T20:22:29.817Z,1.10
2023-12-23T20:24:57.608Z,1.10
2023-12-23T20:27:25.618Z,3.78
2023-12-23T20:29:53.628Z,2.67
2023-12-23T20:32:21.877Z,1.27
2023-12-23T20:34:49.736Z,2.15
2023-12-23T20:37:17.789Z,0.80
2023-12-23T20:39:46.436Z,1.88
2023-12-23T20:42:14.272Z,6.50
2023-12-23T20:44:42.478Z,2.97
2023-12-23T20:47:10.657Z,5.90
2023-12-23T20:49:40.054Z,1.55
2023-12-23T20:52:08.232Z,2.42
2023-12-23T20:54:39.653Z,5.43
2023-12-23T20:57:10.139Z,1.70
2023-12-23T20:59:38.279Z,3.65
2023-12-23T21:02:08.621Z,2.63
2023-12-23T21:04:40.434Z,4.10
2023-12-23T21:07:10.307Z,5.13
2023-12-23T21:09:41.366Z,3.55
2023-12-23T21:12:09.265Z,3.88
2023-12-23T21:14:37.226Z,5.60
2023-12-23T21:17:07.248Z,1.48
2023-12-23T21:19:35.172Z,3.90
2023-12-23T21:22:04.220Z,5.43
2023-12-23T21:24:32.265Z,3.58
2023-12-23T21:27:00.063Z,2.47
2023-12-23T21:29:28.466Z,1.50
2023-12-23T21:31:56.323Z,3.63
2023-12-23T21:34:24.051Z,1.80
2023-12-23T21:36:51.849Z,1.83
2023-12-23T21:39:19.721Z,2.78
2023-12-23T21:41:48.591Z,3.03
2023-12-23T21:44:16.568Z,1.42
2023-12-23T21:46:44.625Z,0.52
2023-12-23T21:49:12.556Z,2.05
2023-12-23T21:51:40.780Z,4.13
2023-12-23T21:54:11.577Z,3.35
2023-12-23T21:56:40.180Z,3.40
2023-12-23T21:59:08.067Z,0.73
2023-12-23T22:01:36.155Z,3.17
2023-12-23T22:04:05.032Z,2.80
2023-12-23T22:06:32.999Z,4.20
2023-12-23T22:09:00.855Z,1.17
2023-12-23T22:11:28.661Z,3.55
2023-12-23T22:13:57.016Z,2.63
2023-12-23T22:16:24.993Z,4.20
2023-12-23T22:18:53.188Z,6.90
2023-12-23T22:21:21.146Z,4.05
2023-12-23T22:23:49.294Z,2.30
2023-12-23T22:26:18.466Z,3.03
2023-12-23T22:28:46.322Z,2.92
2023-12-23T22:31:14.453Z,2.75
2023-12-23T22:33:42.309Z,7.45
2023-12-23T22:36:13.507Z,6.45
2023-12-23T22:38:41.217Z,4.20
2023-12-23T22:41:10.834Z,5.82
2023-12-23T22:43:38.736Z,4.90
2023-12-23T22:46:06.760Z,2.55
2023-12-23T22:48:34.963Z,1.85
2023-12-23T22:51:02.730Z,0.82
2023-12-23T22:53:30.522Z,1.55
2023-12-23T22:55:58.320Z,3.28
2023-12-23T22:58:26.505Z,1.65
2023-12-23T23:00:54.239Z,1.75
2023-12-23T23:03:22.145Z,2.13
2023-12-23T23:05:49.826Z,2.40
2023-12-23T23:08:17.883Z,0.63
2023-12-23T23:10:45.786Z,3.13
2023-12-23T23:13:13.815Z,2.90
2023-12-23T23:15:41.774Z,0.88
2023-12-23T23:18:09.774Z,3.10
2023-12-23T23:20:37.697Z,0.63
2023-12-23T23:23:05.910Z,1.25
2023-12-23T23:25:34.103Z,1.60
2023-12-23T23:28:01.822Z,0.65
2023-12-23T23:30:30.120Z,1.33
2023-12-23T23:32:58.221Z,1.02
2023-12-23T23:35:26.120Z,0.65
2023-12-23T23:37:53.891Z,0.75
2023-12-23T23:40:21.685Z,3.28
2023-12-23T23:42:49.867Z,1.00
2023-12-23T23:45:17.828Z,2.90
2023-12-23T23:47:46.915Z,1.58
2023-12-23T23:50:16.456Z,0.63
2023-12-23T23:52:44.343Z,1.13
2023-12-23T23:55:12.247Z,2.22
2023-12-23T23:57:42.505Z,2.13
